Time;durP1;ratioP1;P1;durP2;ratioP2;P2;SDS_P1;SDS_P2;PMS_P1;PMS_P2;Temp;Humidity;BMP_temperature;BMP_pressure;BME280_temperature;BME280_humidity;BME280_pressure;Samples;Min_cycle;Max_cycle;Signal;HPM_P1;HPM_P2
2021/01/08 06:01:39;;;;;;;28.33;12.70;;;1.10;97.30;;;;;;4689816;23;20785;-79
2021/01/08 06:04:08;;;;;;;32.13;13.30;;;1.10;97.30;;;;;;4915034;29;20510;-78
2021/01/08 06:06:42;;;;;;;28.70;12.60;;;1.00;97.30;;;;;;4920278;29;20459;-78
2021/01/08 06:09:13;;;;;;;34.37;13.33;;;1.00;97.30;;;;;;4922501;29;20806;-79
2021/01/08 06:11:43;;;;;;;33.10;12.97;;;1.00;97.30;;;;;;4907596;29;20462;-79
2021/01/08 06:14:11;;;;;;;33.40;14.60;;;1.00;97.30;;;;;;4899347;29;20456;-78
2021/01/08 06:16:39;;;;;;;30.77;14.37;;;1.00;97.30;;;;;;4898526;29;20521;-78
2021/01/08 06:19:05;;;;;;;26.20;12.80;;;1.00;97.30;;;;;;4898220;29;20532;-78
2021/01/08 06:21:39;;;;;;;32.87;13.57;;;1.00;97.30;;;;;;4898876;29;20437;-80
2021/01/08 06:24:30;;;;;;;28.33;14.10;;;1.00;97.30;;;;;;4899762;29;20950;-79
2021/01/08 06:26:56;;;;;;;34.23;14.03;;;1.00;97.30;;;;;;4899307;29;20434;-80
2021/01/08 06:29:24;;;;;;;33.87;13.80;;;1.00;97.30;;;;;;4898984;29;20425;-77
2021/01/08 06:31:56;;;;;;;31.63;13.60;;;1.00;97.30;;;;;;4897936;29;20455;-76
2021/01/08 06:34:22;;;;;;;33.30;15.10;;;1.00;97.30;;;;;;4897890;29;20444;-77
2021/01/08 06:37:08;;;;;;;32.57;13.20;;;1.00;97.30;;;;;;4897664;29;20472;-76
2021/01/08 06:39:41;;;;;;;28.00;13.27;;;1.10;97.30;;;;;;4897693;29;20185;-77
2021/01/08 06:42:08;;;;;;;35.87;14.70;;;1.10;97.30;;;;;;4897752;29;20456;-77
2021/01/08 06:44:34;;;;;;;34.87;14.67;;;1.10;97.30;;;;;;4897640;29;20414;-76
2021/01/08 06:47:02;;;;;;;34.07;14.10;;;1.10;97.30;;;;;;4897422;29;20424;-77
2021/01/08 06:49:33;;;;;;;30.93;14.73;;;1.10;97.30;;;;;;4897689;29;20792;-77
2021/01/08 06:52:01;;;;;;;30.90;14.30;;;1.10;97.30;;;;;;4897225;29;20450;-76
2021/01/08 06:54:28;;;;;;;32.83;15.37;;;1.10;97.30;;;;;;4897582;29;20871;-76
2021/01/08 06:56:59;;;;;;;32.10;14.43;;;1.10;97.30;;;;;;4897284;29;20461;-77
2021/01/08 06:59:34;;;;;;;32.90;14.97;;;1.10;97.30;;;;;;4897346;29;20422;-77
2021/01/08 07:02:09;;;;;;;31.30;13.17;;;1.10;97.30;;;;;;4897279;29;20465;-77
2021/01/08 07:04:39;;;;;;;36.47;13.50;;;1.10;97.30;;;;;;4897463;29;20419;-76
2021/01/08 07:07:11;;;;;;;38.83;14.30;;;1.10;97.30;;;;;;4897103;29;20425;-78
2021/01/08 07:09:39;;;;;;;34.27;14.20;;;1.10;97.30;;;;;;4898877;29;20409;-78
2021/01/08 07:12:07;;;;;;;29.63;13.40;;;1.10;97.30;;;;;;4897304;29;20521;-78
2021/01/08 07:14:35;;;;;;;38.33;14.27;;;1.10;97.30;;;;;;4897366;29;20418;-78
2021/01/08 07:17:06;;;;;;;33.93;14.93;;;1.10;97.30;;;;;;4897113;29;20457;-76
2021/01/08 07:19:32;;;;;;;28.70;13.67;;;1.10;97.30;;;;;;4897214;29;20926;-76
2021/01/08 07:22:03;;;;;;;32.17;13.53;;;1.10;97.30;;;;;;4897070;29;20465;-76
2021/01/08 07:24:29;;;;;;;34.50;14.23;;;1.10;97.30;;;;;;4896457;29;20432;-76
2021/01/08 07:27:12;;;;;;;32.53;13.27;;;1.10;97.30;;;;;;4896692;29;20420;-76
2021/01/08 07:29:38;;;;;;;32.10;13.67;;;1.20;97.30;;;;;;4896884;29;20493;-75
2021/01/08 07:32:05;;;;;;;33.10;12.90;;;1.20;97.30;;;;;;4897225;29;20484;-76
2021/01/08 07:34:35;;;;;;;33.17;13.70;;;1.20;97.30;;;;;;4896996;29;20189;-76
2021/01/08 07:37:02;;;;;;;34.53;14.07;;;1.20;97.30;;;;;;4896893;29;20469;-76
2021/01/08 07:39:37;;;;;;;37.60;14.33;;;1.20;97.30;;;;;;4897143;29;20457;-76
2021/01/08 07:42:33;;;;;;;29.87;13.20;;;1.20;97.30;;;;;;4898185;29;20436;-76
2021/01/08 07:44:59;;;;;;;29.13;13.60;;;1.20;97.30;;;;;;4897046;29;20406;-75
2021/01/08 07:47:26;;;;;;;32.23;14.67;;;1.20;97.30;;;;;;4896856;29;21018;-76
2021/01/08 07:50:10;;;;;;;32.40;13.40;;;1.20;97.30;;;;;;4896910;29;20429;-76
2021/01/08 07:52:44;;;;;;;32.30;13.73;;;1.20;97.30;;;;;;4897052;29;20445;-76
2021/01/08 07:55:34;;;;;;;31.87;13.90;;;1.30;97.30;;;;;;4897015;29;20432;-76
2021/01/08 07:57:59;;;;;;;25.87;12.50;;;1.30;97.30;;;;;;4893018;29;20469;-76
2021/01/08 08:00:27;;;;;;;31.00;14.23;;;1.30;97.30;;;;;;4896841;29;20436;-76
2021/01/08 08:02:56;;;;;;;30.60;14.30;;;1.30;97.30;;;;;;4896912;29;20339;-75
2021/01/08 08:05:29;;;;;;;32.47;13.77;;;1.30;97.30;;;;;;4900151;29;20428;-76
2021/01/08 08:08:01;;;;;;;34.47;15.63;;;1.30;97.30;;;;;;4899897;29;20419;-75
2021/01/08 08:10:29;;;;;;;35.57;14.50;;;1.30;97.30;;;;;;4899358;29;20842;-76
2021/01/08 08:12:55;;;;;;;30.60;15.17;;;1.30;97.30;;;;;;4900948;29;20416;-76
2021/01/08 08:15:21;;;;;;;32.20;14.87;;;1.30;97.30;;;;;;4901107;29;20423;-76
2021/01/08 08:17:48;;;;;;;29.73;15.20;;;1.30;97.30;;;;;;4899801;29;20979;-76
2021/01/08 08:20:22;;;;;;;28.47;13.47;;;1.30;97.30;;;;;;4900951;29;20422;-76
2021/01/08 08:22:49;;;;;;;28.60;12.87;;;1.30;97.30;;;;;;4899983;29;20844;-76
2021/01/08 08:25:23;;;;;;;35.70;14.60;;;1.40;97.30;;;;;;4899887;29;20481;-76
2021/01/08 08:27:57;;;;;;;35.53;14.73;;;1.40;97.30;;;;;;4899585;29;20943;-75
2021/01/08 08:30:24;;;;;;;31.87;15.23;;;1.40;97.30;;;;;;4903381;29;20434;-76
2021/01/08 08:32:50;;;;;;;33.20;15.60;;;1.40;97.30;;;;;;4903564;29;20418;-76
2021/01/08 08:35:16;;;;;;;26.97;13.50;;;1.40;97.30;;;;;;4899662;29;20543;-76
2021/01/08 08:37:56;;;;;;;29.87;13.57;;;1.40;97.30;;;;;;4899351;29;20548;-76
2021/01/08 08:40:26;;;;;;;30.83;11.77;;;1.40;97.30;;;;;;4899483;29;20630;-76
2021/01/08 08:43:00;;;;;;;33.23;13.27;;;1.40;97.30;;;;;;4899029;29;20507;-76
2021/01/08 08:45:31;;;;;;;27.33;13.03;;;1.40;97.30;;;;;;4899375;29;20510;-76
2021/01/08 08:47:59;;;;;;;30.30;13.07;;;1.50;97.30;;;;;;4900763;29;20444;-76
2021/01/08 08:50:25;;;;;;;29.17;13.53;;;1.40;97.30;;;;;;4901458;29;20418;-76
2021/01/08 08:52:51;;;;;;;29.00;13.50;;;1.50;97.30;;;;;;4900302;29;20557;-75
2021/01/08 08:55:28;;;;;;;31.40;13.87;;;1.50;97.30;;;;;;4901445;29;20421;-77
2021/01/08 08:58:10;;;;;;;32.53;13.87;;;1.50;97.30;;;;;;4899867;29;20487;-76
2021/01/08 09:00:41;;;;;;;33.47;14.20;;;1.50;97.30;;;;;;4898606;29;20445;-75
2021/01/08 09:03:20;;;;;;;30.83;13.13;;;1.50;97.30;;;;;;4898686;29;20441;-75
2021/01/08 09:05:51;;;;;;;26.77;13.40;;;1.50;97.30;;;;;;4899555;29;20426;-76
2021/01/08 09:08:31;;;;;;;31.43;15.50;;;1.50;97.30;;;;;;4891432;29;20442;-76
2021/01/08 09:11:26;;;;;;;25.70;11.50;;;1.50;97.30;;;;;;4888694;29;20472;-76
2021/01/08 09:14:10;;;;;;;28.07;12.67;;;1.50;97.30;;;;;;4898361;29;20436;-76
2021/01/08 09:16:59;;;;;;;28.30;14.27;;;1.60;97.30;;;;;;4898838;29;20437;-77
2021/01/08 09:19:51;;;;;;;27.53;12.93;;;1.60;97.30;;;;;;4898874;29;20444;-77
2021/01/08 09:22:18;;;;;;;32.87;13.47;;;1.60;97.30;;;;;;4898694;29;20446;-75
2021/01/08 09:24:45;;;;;;;26.17;12.60;;;1.60;97.30;;;;;;4898800;29;20923;-75
2021/01/08 09:27:12;;;;;;;37.97;13.90;;;1.60;97.30;;;;;;4898419;29;20453;-76
2021/01/08 09:29:38;;;;;;;27.87;13.30;;;1.70;97.30;;;;;;4898379;29;20972;-76
2021/01/08 09:32:06;;;;;;;25.43;12.40;;;1.70;97.30;;;;;;4898381;29;20951;-76
2021/01/08 09:34:35;;;;;;;28.10;13.13;;;1.70;97.30;;;;;;4898500;29;20420;-76
2021/01/08 09:37:14;;;;;;;27.53;14.10;;;1.70;97.30;;;;;;4897619;29;21066;-75
2021/01/08 09:39:41;;;;;;;27.60;13.23;;;1.70;97.30;;;;;;4898120;29;20425;-76
2021/01/08 09:42:08;;;;;;;33.50;13.80;;;1.70;97.30;;;;;;4890402;29;20453;-76
2021/01/08 09:44:37;;;;;;;24.47;11.70;;;1.60;97.30;;;;;;4898324;29;20426;-76
2021/01/08 09:47:14;;;;;;;28.00;12.80;;;1.70;97.30;;;;;;4898196;29;20422;-76
2021/01/08 09:49:48;;;;;;;30.20;13.30;;;1.70;97.30;;;;;;4898322;29;20476;-76
2021/01/08 09:52:14;;;;;;;29.70;13.50;;;1.70;97.30;;;;;;4898016;29;20489;-75
2021/01/08 09:54:51;;;;;;;27.07;12.60;;;1.70;97.30;;;;;;4898556;29;20425;-75
2021/01/08 09:57:28;;;;;;;26.50;11.63;;;1.80;97.30;;;;;;4895970;29;20492;-76
2021/01/08 09:59:55;;;;;;;28.63;13.40;;;1.80;97.30;;;;;;4896205;29;20524;-76
2021/01/08 10:02:40;;;;;;;28.73;12.70;;;1.90;97.30;;;;;;4898698;29;20508;-76
2021/01/08 10:05:18;;;;;;;28.03;13.00;;;1.90;97.30;;;;;;4897339;29;20449;-76
2021/01/08 10:07:45;;;;;;;28.60;13.63;;;1.90;97.30;;;;;;4883532;29;20927;-76
2021/01/08 10:10:12;;;;;;;30.73;14.73;;;1.90;97.30;;;;;;4897385;29;20441;-76
2021/01/08 10:12:50;;;;;;;26.10;12.70;;;1.90;97.30;;;;;;4896700;29;20493;-75
2021/01/08 10:15:17;;;;;;;29.27;14.03;;;2.00;97.30;;;;;;4898173;29;20432;-76
2021/01/08 10:17:51;;;;;;;31.53;12.80;;;1.90;97.30;;;;;;4917598;29;20490;-75
2021/01/08 10:20:20;;;;;;;30.10;13.97;;;2.00;97.30;;;;;;4894693;29;20510;-75
2021/01/08 10:22:50;;;;;;;30.60;13.23;;;2.00;97.30;;;;;;4897349;29;20477;-75
2021/01/08 10:25:27;;;;;;;22.37;10.80;;;2.00;97.30;;;;;;4894557;29;20422;-75
2021/01/08 10:27:54;;;;;;;30.93;13.90;;;2.00;97.30;;;;;;4896894;29;20429;-75
2021/01/08 10:30:20;;;;;;;25.00;10.43;;;2.00;97.30;;;;;;4896830;29;20440;-75
2021/01/08 10:32:49;;;;;;;25.93;11.93;;;2.10;97.30;;;;;;4896942;29;20456;-76
2021/01/08 10:35:19;;;;;;;30.90;13.37;;;2.10;97.30;;;;;;4897089;29;20489;-76
2021/01/08 10:37:46;;;;;;;24.73;11.90;;;2.10;97.30;;;;;;4898155;29;20460;-76
2021/01/08 10:40:13;;;;;;;27.17;12.70;;;2.10;97.30;;;;;;4897236;29;20414;-76
2021/01/08 10:42:38;;;;;;;30.40;11.87;;;2.10;97.30;;;;;;4897740;29;20504;-76
2021/01/08 10:45:06;;;;;;;25.93;13.03;;;2.10;97.30;;;;;;4898068;29;20513;-76
2021/01/08 10:47:32;;;;;;;26.20;11.83;;;2.10;97.30;;;;;;4897428;29;20217;-76
2021/01/08 10:50:01;;;;;;;26.73;11.80;;;2.10;97.30;;;;;;4897107;29;20445;-75
2021/01/08 10:52:27;;;;;;;21.50;11.50;;;2.10;97.30;;;;;;4897119;29;20572;-75
2021/01/08 10:54:53;;;;;;;32.40;12.47;;;2.10;97.30;;;;;;4897485;29;20428;-75
2021/01/08 10:57:19;;;;;;;23.80;11.23;;;2.10;97.30;;;;;;4895719;29;20499;-75
2021/01/08 10:59:45;;;;;;;24.53;10.63;;;2.10;97.30;;;;;;4895966;29;20520;-76
2021/01/08 11:02:11;;;;;;;29.17;13.30;;;2.10;97.30;;;;;;4896982;29;20457;-75
2021/01/08 11:04:41;;;;;;;26.23;13.00;;;2.10;97.30;;;;;;4896962;29;20189;-75
2021/01/08 11:07:07;;;;;;;27.00;11.57;;;2.00;97.30;;;;;;4896605;29;20433;-76
2021/01/08 11:09:33;;;;;;;30.40;13.00;;;2.00;97.30;;;;;;4901752;29;20441;-76
2021/01/08 11:11:59;;;;;;;23.47;12.10;;;2.00;97.30;;;;;;4899920;29;20445;-75
2021/01/08 11:14:24;;;;;;;25.67;11.43;;;2.00;97.30;;;;;;4898939;29;20181;-76
2021/01/08 11:16:50;;;;;;;30.43;13.37;;;2.00;97.30;;;;;;4897434;29;20457;-75
2021/01/08 11:19:16;;;;;;;32.27;14.10;;;2.00;97.30;;;;;;4896864;29;20284;-75
2021/01/08 11:21:42;;;;;;;28.53;13.07;;;2.00;97.30;;;;;;4896615;29;20205;-75
2021/01/08 11:24:08;;;;;;;26.43;12.93;;;2.10;97.30;;;;;;4897134;29;20608;-75
2021/01/08 11:26:34;;;;;;;27.00;13.13;;;2.10;97.30;;;;;;4897187;29;21031;-76
2021/01/08 11:28:59;;;;;;;25.77;12.97;;;2.10;97.30;;;;;;4896497;29;20512;-76
2021/01/08 11:31:32;;;;;;;26.50;12.63;;;2.10;97.30;;;;;;4897591;29;20269;-76
2021/01/08 11:33:57;;;;;;;29.67;12.73;;;2.10;97.30;;;;;;4898325;29;20189;-75
2021/01/08 11:36:23;;;;;;;24.70;12.50;;;2.10;97.30;;;;;;4896918;29;20806;-75
2021/01/08 11:38:49;;;;;;;27.33;13.80;;;2.10;97.30;;;;;;4900625;29;20204;-75
2021/01/08 11:41:19;;;;;;;24.93;12.87;;;2.10;97.30;;;;;;4900197;29;20433;-76
2021/01/08 11:43:45;;;;;;;24.83;12.07;;;2.20;97.30;;;;;;4900960;29;20182;-75
2021/01/08 11:46:18;;;;;;;25.27;12.87;;;2.20;97.30;;;;;;4901505;29;20417;-75
2021/01/08 11:48:44;;;;;;;24.30;12.20;;;2.20;97.30;;;;;;4899508;29;20436;-75
2021/01/08 11:51:16;;;;;;;25.87;12.83;;;2.20;97.30;;;;;;4899648;29;20456;-75
2021/01/08 11:53:46;;;;;;;25.37;12.97;;;2.10;97.30;;;;;;4900412;29;20539;-76
2021/01/08 11:56:14;;;;;;;24.07;12.53;;;2.20;97.30;;;;;;4901555;29;20817;-75
2021/01/08 11:58:44;;;;;;;20.67;10.53;;;2.20;97.30;;;;;;4899963;29;20492;-75
2021/01/08 12:01:11;;;;;;;26.33;12.90;;;2.20;97.30;;;;;;4900185;29;20441;-75
2021/01/08 12:03:39;;;;;;;27.30;12.90;;;2.20;97.30;;;;;;4901178;29;20429;-75
2021/01/08 12:06:09;;;;;;;21.63;11.40;;;2.20;97.30;;;;;;4901368;29;20427;-76
2021/01/08 12:08:36;;;;;;;29.13;13.33;;;2.20;97.30;;;;;;4900208;29;20425;-76
2021/01/08 12:11:03;;;;;;;21.57;11.77;;;2.20;97.30;;;;;;4900105;29;20881;-76
2021/01/08 12:13:29;;;;;;;24.87;11.47;;;2.20;97.30;;;;;;4899957;29;20422;-76
2021/01/08 12:15:55;;;;;;;26.60;12.83;;;2.20;97.30;;;;;;4899859;29;20974;-76
2021/01/08 12:18:21;;;;;;;22.60;10.63;;;2.30;97.30;;;;;;4900717;29;20209;-75
2021/01/08 12:20:47;;;;;;;24.77;11.87;;;2.30;97.30;;;;;;4899948;29;20193;-76
2021/01/08 12:23:13;;;;;;;22.17;11.00;;;2.30;97.30;;;;;;4899543;29;20519;-76
2021/01/08 12:25:42;;;;;;;27.47;13.00;;;2.30;97.30;;;;;;4899865;29;20425;-76
2021/01/08 12:28:12;;;;;;;25.67;13.17;;;2.40;97.30;;;;;;4899641;29;20421;-76
2021/01/08 12:30:38;;;;;;;25.70;12.50;;;2.40;97.30;;;;;;4899666;29;20441;-76
2021/01/08 12:33:05;;;;;;;26.53;12.90;;;2.50;97.30;;;;;;4900688;29;20422;-76
2021/01/08 12:35:31;;;;;;;21.47;11.40;;;2.50;97.30;;;;;;4899712;29;20426;-76
2021/01/08 12:37:57;;;;;;;27.83;12.67;;;2.50;97.30;;;;;;4899376;29;20927;-76
2021/01/08 12:40:23;;;;;;;25.77;12.43;;;2.50;97.30;;;;;;4899581;29;20508;-76
2021/01/08 12:42:52;;;;;;;22.90;11.80;;;2.60;97.30;;;;;;4898612;29;20533;-76
2021/01/08 12:45:18;;;;;;;27.57;13.77;;;2.60;97.30;;;;;;4899170;29;20418;-75
2021/01/08 12:47:45;;;;;;;23.30;10.90;;;2.70;97.30;;;;;;4900151;29;20436;-75
2021/01/08 12:50:12;;;;;;;20.30;9.83;;;2.80;97.30;;;;;;4898663;29;20842;-75
2021/01/08 12:52:38;;;;;;;16.83;8.70;;;2.70;97.30;;;;;;4899950;29;20445;-75
2021/01/08 12:55:05;;;;;;;15.30;8.70;;;2.70;97.30;;;;;;4900265;29;20481;-76
2021/01/08 12:57:30;;;;;;;19.53;8.70;;;2.80;97.30;;;;;;4898486;29;20966;-76
2021/01/08 12:59:58;;;;;;;19.20;9.57;;;2.80;97.30;;;;;;4898366;29;20482;-76
2021/01/08 13:02:23;;;;;;;18.90;9.80;;;2.80;97.30;;;;;;4912802;29;20213;-75
2021/01/08 13:04:49;;;;;;;19.87;9.87;;;2.80;97.30;;;;;;4899126;29;20414;-75
2021/01/08 13:07:15;;;;;;;20.20;11.40;;;2.70;97.30;;;;;;4898509;29;20735;-76
2021/01/08 13:09:40;;;;;;;18.70;9.80;;;2.80;97.30;;;;;;4898595;29;20224;-75
2021/01/08 13:12:07;;;;;;;17.93;10.10;;;2.80;97.30;;;;;;4898762;29;20260;-76
2021/01/08 13:14:32;;;;;;;19.73;10.50;;;2.80;97.30;;;;;;4898746;29;20178;-76
2021/01/08 13:16:59;;;;;;;19.77;9.33;;;2.90;97.30;;;;;;4898710;29;20417;-76
2021/01/08 13:19:28;;;;;;;21.33;10.13;;;2.90;97.30;;;;;;4898427;29;20332;-76
2021/01/08 13:21:54;;;;;;;18.80;9.23;;;2.80;97.30;;;;;;4899989;29;20448;-76
2021/01/08 13:24:21;;;;;;;21.27;9.97;;;2.80;97.30;;;;;;4900970;29;20923;-75
2021/01/08 13:26:47;;;;;;;20.53;10.30;;;2.80;97.30;;;;;;4901134;29;20409;-75
2021/01/08 13:29:13;;;;;;;20.60;10.17;;;2.80;97.30;;;;;;4899989;29;20417;-75
2021/01/08 13:31:42;;;;;;;19.37;9.97;;;2.80;97.30;;;;;;4900173;29;21006;-75
2021/01/08 13:34:07;;;;;;;17.80;8.87;;;2.80;97.30;;;;;;4900393;29;20173;-75
2021/01/08 13:36:35;;;;;;;17.87;9.30;;;2.70;97.30;;;;;;4898956;29;20754;-75
2021/01/08 13:39:03;;;;;;;17.60;9.00;;;2.70;97.30;;;;;;4898479;29;20265;-76
2021/01/08 13:41:29;;;;;;;14.73;7.53;;;2.60;97.30;;;;;;4898439;29;20501;-75
2021/01/08 13:43:55;;;;;;;17.50;8.47;;;2.60;97.30;;;;;;4898941;29;20421;-76
2021/01/08 13:46:21;;;;;;;15.67;7.73;;;2.50;97.30;;;;;;4898881;29;20272;-76
2021/01/08 13:48:46;;;;;;;16.83;8.50;;;2.50;97.30;;;;;;4898539;29;20233;-75
2021/01/08 13:51:24;;;;;;;18.33;8.63;;;2.50;97.30;;;;;;4901921;29;20204;-75
2021/01/08 13:53:51;;;;;;;16.63;8.30;;;2.50;97.30;;;;;;4900020;29;20275;-76
2021/01/08 13:56:17;;;;;;;19.10;8.53;;;2.50;97.30;;;;;;4898336;29;20986;-75
2021/01/08 13:58:44;;;;;;;17.00;9.10;;;2.50;97.30;;;;;;4899631;29;20483;-75
2021/01/08 14:01:14;;;;;;;21.43;8.80;;;2.50;97.30;;;;;;4896893;29;20449;-76
2021/01/08 14:03:43;;;;;;;18.17;8.80;;;2.50;97.30;;;;;;4898141;29;20445;-75
2021/01/08 14:06:19;;;;;;;15.10;8.57;;;2.50;97.30;;;;;;4897928;29;20975;-76
2021/01/08 14:08:46;;;;;;;15.87;8.43;;;2.50;97.30;;;;;;4897763;29;20978;-76
2021/01/08 14:11:21;;;;;;;18.57;8.80;;;2.50;97.30;;;;;;4897745;29;21094;-75
2021/01/08 14:13:47;;;;;;;17.57;9.23;;;2.40;97.30;;;;;;4898049;29;20485;-75
2021/01/08 14:16:16;;;;;;;15.37;7.67;;;2.40;97.30;;;;;;4899031;29;20542;-75
2021/01/08 14:18:43;;;;;;;12.87;7.37;;;2.30;97.30;;;;;;4897508;29;20232;-75
2021/01/08 14:21:11;;;;;;;14.33;7.93;;;2.30;97.30;;;;;;4897938;29;20456;-76
2021/01/08 14:23:37;;;;;;;21.80;9.20;;;2.30;97.30;;;;;;4898728;29;20928;-75
2021/01/08 14:26:03;;;;;;;15.17;7.50;;;2.30;97.30;;;;;;4898242;29;20425;-75
2021/01/08 14:28:29;;;;;;;17.10;8.07;;;2.30;97.30;;;;;;4897438;29;20177;-76
2021/01/08 14:30:54;;;;;;;18.10;8.30;;;2.30;97.30;;;;;;4898931;29;20521;-75
2021/01/08 14:33:20;;;;;;;16.00;8.07;;;2.30;97.30;;;;;;4898556;29;20221;-76
2021/01/08 14:35:46;;;;;;;31.13;15.17;;;2.30;97.30;;;;;;4897578;29;20177;-75
2021/01/08 14:38:11;;;;;;;50.53;21.97;;;2.30;97.30;;;;;;4897405;29;20723;-75
2021/01/08 14:40:37;;;;;;;37.40;17.53;;;2.30;97.30;;;;;;4897568;29;20558;-76
2021/01/08 14:43:03;;;;;;;38.63;18.20;;;2.20;97.30;;;;;;4897463;29;20185;-75
2021/01/08 14:45:28;;;;;;;21.20;9.17;;;2.30;97.30;;;;;;4897572;29;20177;-76
2021/01/08 14:47:54;;;;;;;21.93;9.87;;;2.20;97.30;;;;;;4897168;29;20596;-76
2021/01/08 14:50:20;;;;;;;20.23;9.13;;;2.20;97.30;;;;;;4897269;29;20189;-75
2021/01/08 14:52:45;;;;;;;23.20;11.17;;;2.20;97.30;;;;;;4897378;29;20189;-75
2021/01/08 14:55:11;;;;;;;22.27;9.37;;;2.20;97.30;;;;;;4897593;29;20196;-75
2021/01/08 14:57:37;;;;;;;28.00;14.10;;;2.20;97.30;;;;;;4897434;29;20244;-75
2021/01/08 15:00:06;;;;;;;18.87;9.20;;;2.20;97.30;;;;;;4897219;29;20521;-75
2021/01/08 15:02:32;;;;;;;44.13;24.33;;;2.20;97.30;;;;;;4896795;29;20221;-75
2021/01/08 15:04:57;;;;;;;25.60;9.90;;;2.20;97.30;;;;;;4897254;29;20477;-75
2021/01/08 15:07:23;;;;;;;24.03;10.77;;;2.20;97.30;;;;;;4897040;29;20591;-76
2021/01/08 15:09:49;;;;;;;24.43;11.17;;;2.30;97.30;;;;;;4897193;29;20181;-75
2021/01/08 15:12:14;;;;;;;30.80;13.37;;;2.30;97.30;;;;;;4898666;29;20232;-76
2021/01/08 15:14:40;;;;;;;23.60;10.80;;;2.30;97.30;;;;;;4900998;29;20192;-75
2021/01/08 15:17:06;;;;;;;27.03;12.33;;;2.30;97.30;;;;;;4900679;29;20200;-76
2021/01/08 15:19:32;;;;;;;21.10;11.10;;;2.30;97.30;;;;;;4900506;29;20203;-75
2021/01/08 15:21:57;;;;;;;26.23;12.70;;;2.20;97.30;;;;;;4900995;29;20243;-75
2021/01/08 15:24:23;;;;;;;20.63;10.60;;;2.20;97.30;;;;;;4902025;29;20593;-75
2021/01/08 15:26:48;;;;;;;25.17;13.60;;;2.20;97.30;;;;;;4901097;29;20271;-76
2021/01/08 15:29:14;;;;;;;27.00;12.70;;;2.20;97.30;;;;;;4900743;29;20189;-75
2021/01/08 15:31:40;;;;;;;20.23;10.70;;;2.20;97.30;;;;;;4900566;29;20291;-75
2021/01/08 15:34:06;;;;;;;20.43;9.97;;;2.20;97.30;;;;;;4900670;29;20173;-75
2021/01/08 15:36:31;;;;;;;20.23;10.73;;;2.20;97.30;;;;;;4900817;29;20592;-75
2021/01/08 15:38:57;;;;;;;16.10;9.30;;;2.20;97.30;;;;;;4899349;29;20304;-75
2021/01/08 15:41:24;;;;;;;17.77;9.40;;;2.20;97.30;;;;;;4908645;29;20221;-75
2021/01/08 15:43:51;;;;;;;18.30;8.57;;;2.20;97.30;;;;;;4909245;29;20188;-76
2021/01/08 15:46:17;;;;;;;21.37;8.50;;;2.20;97.30;;;;;;4907931;29;20477;-76
2021/01/08 15:48:43;;;;;;;16.33;7.80;;;2.20;97.30;;;;;;4910132;29;20910;-76
2021/01/08 15:51:09;;;;;;;18.10;8.77;;;2.20;97.30;;;;;;4907547;29;20793;-74
2021/01/08 15:53:36;;;;;;;19.60;9.00;;;2.10;97.30;;;;;;4913610;29;20432;-75
2021/01/08 15:56:02;;;;;;;17.10;8.73;;;2.10;97.30;;;;;;4919368;29;20937;-75
2021/01/08 15:58:28;;;;;;;20.27;10.07;;;2.10;97.30;;;;;;4919050;29;20531;-74
2021/01/08 16:00:56;;;;;;;20.83;12.43;;;2.10;97.30;;;;;;4918815;29;20207;-75
2021/01/08 16:03:22;;;;;;;18.70;8.07;;;2.10;97.30;;;;;;4912876;29;20520;-74
2021/01/08 16:05:49;;;;;;;17.90;8.90;;;2.10;97.30;;;;;;4900191;29;20429;-74
2021/01/08 16:08:15;;;;;;;19.10;7.80;;;2.10;97.30;;;;;;4912733;29;21026;-74
2021/01/08 16:10:41;;;;;;;15.67;7.70;;;2.10;97.30;;;;;;4911496;29;20445;-74
2021/01/08 16:13:07;;;;;;;16.47;7.30;;;2.10;97.30;;;;;;4899490;29;20433;-75
2021/01/08 16:15:33;;;;;;;13.17;6.63;;;2.00;97.30;;;;;;4881113;29;20460;-74
2021/01/08 16:18:04;;;;;;;14.87;7.43;;;2.00;97.30;;;;;;4899330;29;20213;-74
2021/01/08 16:20:31;;;;;;;15.57;8.83;;;2.00;97.30;;;;;;4898634;29;20429;-74
2021/01/08 16:22:57;;;;;;;15.70;7.20;;;2.00;97.30;;;;;;4900650;29;20896;-73
2021/01/08 16:25:22;;;;;;;15.80;8.83;;;2.00;97.30;;;;;;4900700;29;20450;-74
2021/01/08 16:27:53;;;;;;;14.37;7.50;;;2.00;97.30;;;;;;4900836;29;20433;-75
2021/01/08 16:30:20;;;;;;;17.53;8.03;;;2.00;97.30;;;;;;4900115;29;20255;-74
2021/01/08 16:32:48;;;;;;;16.17;8.20;;;2.00;97.30;;;;;;4901049;29;20421;-73
2021/01/08 16:35:14;;;;;;;13.47;7.47;;;2.00;97.30;;;;;;4903316;29;20441;-73
2021/01/08 16:37:42;;;;;;;13.17;7.30;;;2.00;97.30;;;;;;4902438;29;20538;-74
2021/01/08 16:40:10;;;;;;;14.37;7.60;;;2.10;97.30;;;;;;4899914;29;20426;-74
2021/01/08 16:42:36;;;;;;;12.57;7.10;;;2.10;97.30;;;;;;4899311;29;20538;-74
2021/01/08 16:45:03;;;;;;;15.47;8.00;;;2.20;97.30;;;;;;4899231;29;20418;-74
2021/01/08 16:47:29;;;;;;;16.20;7.40;;;2.20;97.30;;;;;;4900459;29;20173;-73
2021/01/08 16:49:55;;;;;;;12.47;7.40;;;2.20;97.30;;;;;;4898677;29;20437;-74
2021/01/08 16:52:21;;;;;;;14.90;7.20;;;2.20;97.30;;;;;;4899271;29;20472;-74
2021/01/08 16:54:48;;;;;;;12.77;6.53;;;2.20;97.30;;;;;;4899655;29;20928;-73
2021/01/08 16:57:15;;;;;;;12.60;7.20;;;2.20;97.30;;;;;;4899774;29;20245;-74
2021/01/08 16:59:41;;;;;;;11.60;6.03;;;2.20;97.30;;;;;;4899094;29;20445;-74
2021/01/08 17:02:11;;;;;;;12.70;6.70;;;2.20;97.30;;;;;;4898586;29;20979;-74
2021/01/08 17:04:38;;;;;;;13.20;6.83;;;2.20;97.30;;;;;;4900276;29;20906;-74
2021/01/08 17:07:07;;;;;;;11.70;6.87;;;2.20;97.30;;;;;;4898986;29;20472;-73
2021/01/08 17:09:33;;;;;;;15.13;6.90;;;2.20;97.30;;;;;;4898920;29;20481;-74
2021/01/08 17:12:02;;;;;;;13.37;7.10;;;2.20;97.30;;;;;;4898543;29;20437;-76
2021/01/08 17:14:28;;;;;;;11.93;7.20;;;2.20;97.30;;;;;;4899067;29;20520;-73
2021/01/08 17:16:57;;;;;;;18.27;7.60;;;2.20;97.30;;;;;;4898645;29;20425;-76
2021/01/08 17:19:22;;;;;;;235.63;71.37;;;2.10;97.30;;;;;;4898383;29;20178;-74
2021/01/08 17:21:49;;;;;;;20.00;9.87;;;2.20;97.30;;;;;;4898643;29;20445;-73
2021/01/08 17:24:17;;;;;;;14.60;8.20;;;2.10;97.30;;;;;;4898798;29;20219;-74
2021/01/08 17:26:43;;;;;;;13.57;7.17;;;2.10;97.30;;;;;;4898589;29;20433;-74
2021/01/08 17:29:13;;;;;;;12.30;6.60;;;2.10;97.30;;;;;;4898521;29;20490;-73
2021/01/08 17:31:44;;;;;;;19.70;11.60;;;2.20;97.30;;;;;;4898399;29;20524;-73
2021/01/08 17:34:10;;;;;;;23.10;12.70;;;2.20;97.30;;;;;;4898415;29;20429;-74
2021/01/08 17:36:36;;;;;;;12.53;6.33;;;2.10;97.30;;;;;;4899229;29;20441;-74
2021/01/08 17:39:04;;;;;;;11.97;7.50;;;2.10;97.30;;;;;;4898249;29;20208;-73
2021/01/08 17:41:34;;;;;;;14.67;8.30;;;2.10;97.30;;;;;;4897129;29;20229;-74
2021/01/08 17:44:00;;;;;;;12.67;6.93;;;2.10;97.30;;;;;;4898305;29;20425;-74
2021/01/08 17:46:28;;;;;;;9.87;6.47;;;2.10;97.30;;;;;;4898145;29;20472;-74
2021/01/08 17:48:54;;;;;;;12.67;7.40;;;2.10;97.30;;;;;;4898070;29;20517;-74
2021/01/08 17:51:20;;;;;;;16.27;6.87;;;2.10;97.30;;;;;;4898203;29;20963;-74
2021/01/08 17:53:46;;;;;;;17.70;9.23;;;2.10;97.30;;;;;;4898249;29;20520;-74
2021/01/08 17:56:16;;;;;;;13.80;7.57;;;2.00;97.30;;;;;;4898243;29;20185;-73
2021/01/08 17:58:41;;;;;;;16.17;9.33;;;2.00;97.30;;;;;;4901246;29;20201;-73
2021/01/08 18:01:07;;;;;;;14.70;9.47;;;2.00;97.30;;;;;;4900508;29;20444;-73
2021/01/08 18:03:33;;;;;;;14.30;9.13;;;2.00;97.30;;;;;;4900116;29;20545;-74
2021/01/08 18:05:58;;;;;;;17.60;7.73;;;2.00;97.30;;;;;;4900198;29;20542;-72
2021/01/08 18:08:24;;;;;;;11.77;7.40;;;2.00;97.30;;;;;;4898076;29;20678;-73
2021/01/08 18:10:52;;;;;;;14.30;7.90;;;2.00;97.30;;;;;;4897918;29;20331;-73
2021/01/08 18:13:19;;;;;;;14.93;7.70;;;2.00;97.30;;;;;;4899046;29;20437;-73
2021/01/08 18:15:45;;;;;;;14.30;7.80;;;2.00;97.30;;;;;;4897848;29;20433;-74
2021/01/08 18:18:10;;;;;;;15.30;8.20;;;1.90;97.30;;;;;;4897464;29;20469;-73
2021/01/08 18:20:36;;;;;;;11.00;6.70;;;1.90;97.30;;;;;;4898515;29;20433;-73
2021/01/08 18:23:03;;;;;;;13.00;7.47;;;1.90;97.30;;;;;;4897357;29;20181;-74
2021/01/08 18:25:29;;;;;;;16.40;8.27;;;1.90;97.30;;;;;;4897928;29;20200;-73
2021/01/08 18:27:55;;;;;;;12.67;7.63;;;1.90;97.30;;;;;;4897336;29;20430;-74
2021/01/08 18:30:21;;;;;;;18.63;8.37;;;2.00;97.30;;;;;;4898566;29;20264;-73
2021/01/08 18:32:47;;;;;;;12.93;6.83;;;2.00;97.30;;;;;;4897177;29;20958;-74
2021/01/08 18:35:13;;;;;;;13.10;7.50;;;2.00;97.30;;;;;;4897558;29;20426;-73
2021/01/08 18:37:39;;;;;;;14.27;8.27;;;2.00;97.30;;;;;;4897037;29;20212;-74
2021/01/08 18:40:06;;;;;;;19.80;8.13;;;2.00;97.30;;;;;;4898654;29;20272;-73
2021/01/08 18:42:38;;;;;;;16.97;8.03;;;2.10;97.30;;;;;;4898184;29;20683;-74
2021/01/08 18:45:09;;;;;;;17.20;7.73;;;2.10;97.30;;;;;;4897373;29;20944;-73
2021/01/08 18:47:39;;;;;;;13.30;7.63;;;2.20;97.30;;;;;;4896655;29;20475;-73